sensor_id;sensor_type;location;lat;lon;timestamp;P1;durP1;ratioP1;P2;durP2;ratioP2
71965;SDS011;59836;52.132;5.442;2022-12-10T00:01:18;35.30;;;15.13;;
71965;SDS011;59836;52.132;5.442;2022-12-10T00:03:46;31.73;;;13.27;;
71965;SDS011;59836;52.132;5.442;2022-12-10T00:06:14;37.80;;;14.32;;
71965;SDS011;59836;52.132;5.442;2022-12-10T00:08:42;31.55;;;13.68;;
71965;SDS011;59836;52.132;5.442;2022-12-10T00:11:10;30.88;;;13.75;;
71965;SDS011;59836;52.132;5.442;2022-12-10T00:13:38;35.70;;;15.23;;
71965;SDS011;59836;52.132;5.442;2022-12-10T00:16:06;31.77;;;13.73;;
71965;SDS011;59836;52.132;5.442;2022-12-10T00:18:34;32.45;;;13.32;;
71965;SDS011;59836;52.132;5.442;2022-12-10T00:21:02;37.13;;;15.13;;
71965;SDS011;59836;52.132;5.442;2022-12-10T00:23:32;32.35;;;13.45;;
71965;SDS011;59836;52.132;5.442;2022-12-10T00:26:03;31.27;;;13.60;;
71965;SDS011;59836;52.132;5.442;2022-12-10T00:28:37;37.92;;;13.35;;
71965;SDS011;59836;52.132;5.442;2022-12-10T00:33:31;33.85;;;14.07;;
71965;SDS011;59836;52.132;5.442;2022-12-10T00:36:01;39.28;;;14.68;;
71965;SDS011;59836;52.132;5.442;2022-12-10T00:38:32;32.33;;;15.40;;
71965;SDS011;59836;52.132;5.442;2022-12-10T00:40:59;33.63;;;14.40;;
71965;SDS011;59836;52.132;5.442;2022-12-10T00:43:26;36.65;;;14.10;;
71965;SDS011;59836;52.132;5.442;2022-12-10T00:45:53;37.45;;;14.18;;
71965;SDS011;59836;52.132;5.442;2022-12-10T00:48:20;38.30;;;15.98;;
71965;SDS011;59836;52.132;5.442;2022-12-10T00:50:57;33.37;;;13.43;;
71965;SDS011;59836;52.132;5.442;2022-12-10T00:53:28;32.13;;;13.40;;
71965;SDS011;59836;52.132;5.442;2022-12-10T00:55:57;40.80;;;15.38;;
71965;SDS011;59836;52.132;5.442;2022-12-10T00:58:23;35.97;;;14.27;;
71965;SDS011;59836;52.132;5.442;2022-12-10T01:00:53;41.70;;;14.15;;
71965;SDS011;59836;52.132;5.442;2022-12-10T01:03:20;43.70;;;15.43;;
71965;SDS011;59836;52.132;5.442;2022-12-10T01:05:46;37.25;;;13.55;;
71965;SDS011;59836;52.132;5.442;2022-12-10T01:08:13;39.35;;;15.82;;
71965;SDS011;59836;52.132;5.442;2022-12-10T01:10:39;42.70;;;16.63;;
71965;SDS011;59836;52.132;5.442;2022-12-10T01:13:05;40.75;;;14.88;;
71965;SDS011;59836;52.132;5.442;2022-12-10T01:15:32;40.90;;;16.07;;
71965;SDS011;59836;52.132;5.442;2022-12-10T01:18:03;40.08;;;15.93;;
71965;SDS011;59836;52.132;5.442;2022-12-10T01:20:29;45.72;;;16.95;;
71965;SDS011;59836;52.132;5.442;2022-12-10T01:22:56;40.38;;;16.10;;
71965;SDS011;59836;52.132;5.442;2022-12-10T01:25:22;43.20;;;15.85;;
71965;SDS011;59836;52.132;5.442;2022-12-10T01:27:49;40.83;;;15.60;;
71965;SDS011;59836;52.132;5.442;2022-12-10T01:30:15;41.42;;;15.13;;
71965;SDS011;59836;52.132;5.442;2022-12-10T01:32:41;41.80;;;14.90;;
71965;SDS011;59836;52.132;5.442;2022-12-10T01:35:08;42.00;;;15.77;;
71965;SDS011;59836;52.132;5.442;2022-12-10T01:37:34;41.63;;;16.63;;
71965;SDS011;59836;52.132;5.442;2022-12-10T01:40:00;43.97;;;16.83;;
71965;SDS011;59836;52.132;5.442;2022-12-10T01:42:27;42.08;;;15.57;;
71965;SDS011;59836;52.132;5.442;2022-12-10T01:44:57;42.17;;;16.75;;
71965;SDS011;59836;52.132;5.442;2022-12-10T01:47:25;37.42;;;15.48;;
71965;SDS011;59836;52.132;5.442;2022-12-10T01:49:51;40.00;;;16.77;;
71965;SDS011;59836;52.132;5.442;2022-12-10T01:52:18;44.73;;;16.07;;
71965;SDS011;59836;52.132;5.442;2022-12-10T01:54:45;43.95;;;16.67;;
71965;SDS011;59836;52.132;5.442;2022-12-10T01:57:13;41.40;;;15.27;;
71965;SDS011;59836;52.132;5.442;2022-12-10T01:59:42;40.25;;;15.23;;
71965;SDS011;59836;52.132;5.442;2022-12-10T02:02:13;41.65;;;15.88;;
71965;SDS011;59836;52.132;5.442;2022-12-10T02:04:55;38.87;;;15.47;;
71965;SDS011;59836;52.132;5.442;2022-12-10T02:13:28;45.10;;;14.95;;
71965;SDS011;59836;52.132;5.442;2022-12-10T02:16:00;41.10;;;15.73;;
71965;SDS011;59836;52.132;5.442;2022-12-10T02:18:41;37.80;;;15.13;;
71965;SDS011;59836;52.132;5.442;2022-12-10T02:21:19;39.70;;;14.65;;
71965;SDS011;59836;52.132;5.442;2022-12-10T02:24:00;43.00;;;14.98;;
71965;SDS011;59836;52.132;5.442;2022-12-10T02:26:42;41.58;;;15.25;;
71965;SDS011;59836;52.132;5.442;2022-12-10T02:29:26;38.10;;;15.40;;
71965;SDS011;59836;52.132;5.442;2022-12-10T02:32:02;38.83;;;14.50;;
71965;SDS011;59836;52.132;5.442;2022-12-10T02:34:36;46.28;;;16.45;;
71965;SDS011;59836;52.132;5.442;2022-12-10T02:37:19;44.42;;;16.02;;
71965;SDS011;59836;52.132;5.442;2022-12-10T02:39:50;38.53;;;15.25;;
71965;SDS011;59836;52.132;5.442;2022-12-10T02:42:21;40.03;;;15.20;;
71965;SDS011;59836;52.132;5.442;2022-12-10T02:44:50;33.00;;;12.90;;
71965;SDS011;59836;52.132;5.442;2022-12-10T02:47:19;32.40;;;14.18;;
71965;SDS011;59836;52.132;5.442;2022-12-10T02:49:47;37.95;;;13.02;;
71965;SDS011;59836;52.132;5.442;2022-12-10T02:52:17;38.42;;;14.38;;
71965;SDS011;59836;52.132;5.442;2022-12-10T02:54:46;38.58;;;13.45;;
71965;SDS011;59836;52.132;5.442;2022-12-10T03:00:04;42.22;;;13.88;;
71965;SDS011;59836;52.132;5.442;2022-12-10T03:02:43;36.47;;;13.68;;
71965;SDS011;59836;52.132;5.442;2022-12-10T03:05:30;38.55;;;12.77;;
71965;SDS011;59836;52.132;5.442;2022-12-10T03:08:03;37.45;;;13.32;;
71965;SDS011;59836;52.132;5.442;2022-12-10T03:10:42;41.50;;;14.83;;
71965;SDS011;59836;52.132;5.442;2022-12-10T03:13:18;45.65;;;13.70;;
71965;SDS011;59836;52.132;5.442;2022-12-10T03:15:47;43.80;;;15.55;;
71965;SDS011;59836;52.132;5.442;2022-12-10T03:18:17;41.30;;;13.35;;
71965;SDS011;59836;52.132;5.442;2022-12-10T03:20:48;37.67;;;14.32;;
71965;SDS011;59836;52.132;5.442;2022-12-10T03:23:18;40.60;;;13.93;;
71965;SDS011;59836;52.132;5.442;2022-12-10T03:25:49;39.08;;;14.40;;
71965;SDS011;59836;52.132;5.442;2022-12-10T03:28:17;44.00;;;15.25;;
71965;SDS011;59836;52.132;5.442;2022-12-10T03:30:45;39.03;;;14.55;;
71965;SDS011;59836;52.132;5.442;2022-12-10T03:33:13;41.28;;;15.02;;
71965;SDS011;59836;52.132;5.442;2022-12-10T03:35:41;42.53;;;14.70;;
71965;SDS011;59836;52.132;5.442;2022-12-10T03:38:07;35.33;;;13.70;;
71965;SDS011;59836;52.132;5.442;2022-12-10T03:40:34;40.50;;;15.05;;
71965;SDS011;59836;52.132;5.442;2022-12-10T03:43:01;42.17;;;14.27;;
71965;SDS011;59836;52.132;5.442;2022-12-10T03:45:28;42.33;;;15.23;;
71965;SDS011;59836;52.132;5.442;2022-12-10T03:47:54;38.07;;;13.37;;
71965;SDS011;59836;52.132;5.442;2022-12-10T03:50:20;36.00;;;13.85;;
71965;SDS011;59836;52.132;5.442;2022-12-10T03:52:47;35.88;;;13.30;;
71965;SDS011;59836;52.132;5.442;2022-12-10T03:55:13;38.67;;;13.00;;
71965;SDS011;59836;52.132;5.442;2022-12-10T03:57:40;39.15;;;14.60;;
71965;SDS011;59836;52.132;5.442;2022-12-10T04:00:06;43.73;;;14.90;;
71965;SDS011;59836;52.132;5.442;2022-12-10T04:02:34;33.00;;;13.15;;
71965;SDS011;59836;52.132;5.442;2022-12-10T04:05:00;34.45;;;12.23;;
71965;SDS011;59836;52.132;5.442;2022-12-10T04:07:27;32.42;;;11.77;;
71965;SDS011;59836;52.132;5.442;2022-12-10T04:09:53;39.70;;;13.38;;
71965;SDS011;59836;52.132;5.442;2022-12-10T04:12:20;32.90;;;12.73;;
71965;SDS011;59836;52.132;5.442;2022-12-10T04:14:46;40.15;;;13.13;;
71965;SDS011;59836;52.132;5.442;2022-12-10T04:17:32;31.17;;;11.63;;
71965;SDS011;59836;52.132;5.442;2022-12-10T04:19:59;32.95;;;12.02;;
71965;SDS011;59836;52.132;5.442;2022-12-10T04:22:26;38.50;;;11.57;;
71965;SDS011;59836;52.132;5.442;2022-12-10T04:25:12;33.60;;;10.97;;
71965;SDS011;59836;52.132;5.442;2022-12-10T04:27:57;35.05;;;12.30;;
71965;SDS011;59836;52.132;5.442;2022-12-10T04:30:24;31.70;;;11.48;;
71965;SDS011;59836;52.132;5.442;2022-12-10T04:32:50;32.47;;;12.88;;
71965;SDS011;59836;52.132;5.442;2022-12-10T04:35:17;38.83;;;12.55;;
71965;SDS011;59836;52.132;5.442;2022-12-10T04:37:43;38.73;;;12.80;;
71965;SDS011;59836;52.132;5.442;2022-12-10T04:40:10;40.35;;;13.57;;
71965;SDS011;59836;52.132;5.442;2022-12-10T04:42:37;36.50;;;13.75;;
71965;SDS011;59836;52.132;5.442;2022-12-10T04:45:04;35.47;;;13.90;;
71965;SDS011;59836;52.132;5.442;2022-12-10T04:47:31;32.15;;;12.48;;
71965;SDS011;59836;52.132;5.442;2022-12-10T04:49:57;36.77;;;13.33;;
71965;SDS011;59836;52.132;5.442;2022-12-10T04:52:23;35.40;;;12.65;;
71965;SDS011;59836;52.132;5.442;2022-12-10T04:54:50;41.10;;;12.73;;
71965;SDS011;59836;52.132;5.442;2022-12-10T04:57:16;31.80;;;11.93;;
71965;SDS011;59836;52.132;5.442;2022-12-10T04:59:43;36.58;;;12.63;;
71965;SDS011;59836;52.132;5.442;2022-12-10T05:02:09;35.97;;;12.63;;
71965;SDS011;59836;52.132;5.442;2022-12-10T05:04:35;32.75;;;11.93;;
71965;SDS011;59836;52.132;5.442;2022-12-10T05:07:02;32.75;;;12.13;;
71965;SDS011;59836;52.132;5.442;2022-12-10T05:09:29;34.60;;;12.18;;
71965;SDS011;59836;52.132;5.442;2022-12-10T05:11:55;39.97;;;14.88;;
71965;SDS011;59836;52.132;5.442;2022-12-10T05:14:22;34.53;;;12.27;;
71965;SDS011;59836;52.132;5.442;2022-12-10T05:16:49;34.53;;;13.02;;
71965;SDS011;59836;52.132;5.442;2022-12-10T05:19:17;37.08;;;13.07;;
71965;SDS011;59836;52.132;5.442;2022-12-10T05:21:45;37.03;;;12.57;;
71965;SDS011;59836;52.132;5.442;2022-12-10T05:24:30;41.67;;;14.90;;
71965;SDS011;59836;52.132;5.442;2022-12-10T05:26:57;33.03;;;12.37;;
71965;SDS011;59836;52.132;5.442;2022-12-10T05:29:23;38.70;;;13.65;;
71965;SDS011;59836;52.132;5.442;2022-12-10T05:31:50;42.38;;;15.30;;
71965;SDS011;59836;52.132;5.442;2022-12-10T05:34:16;43.67;;;14.80;;
71965;SDS011;59836;52.132;5.442;2022-12-10T05:36:43;38.17;;;14.63;;
71965;SDS011;59836;52.132;5.442;2022-12-10T05:39:09;42.80;;;14.90;;
71965;SDS011;59836;52.132;5.442;2022-12-10T05:41:37;42.47;;;16.05;;
71965;SDS011;59836;52.132;5.442;2022-12-10T05:44:05;43.30;;;15.95;;
71965;SDS011;59836;52.132;5.442;2022-12-10T05:46:32;44.97;;;15.32;;
71965;SDS011;59836;52.132;5.442;2022-12-10T05:49:02;42.30;;;13.48;;
71965;SDS011;59836;52.132;5.442;2022-12-10T05:51:31;38.70;;;12.73;;
71965;SDS011;59836;52.132;5.442;2022-12-10T05:53:59;42.70;;;13.30;;
71965;SDS011;59836;52.132;5.442;2022-12-10T05:56:27;38.55;;;13.07;;
71965;SDS011;59836;52.132;5.442;2022-12-10T05:58:54;37.40;;;13.38;;
71965;SDS011;59836;52.132;5.442;2022-12-10T06:01:25;40.55;;;14.00;;
71965;SDS011;59836;52.132;5.442;2022-12-10T06:03:53;43.27;;;14.37;;
71965;SDS011;59836;52.132;5.442;2022-12-10T06:06:24;37.42;;;14.02;;
71965;SDS011;59836;52.132;5.442;2022-12-10T06:08:52;39.55;;;14.82;;
71965;SDS011;59836;52.132;5.442;2022-12-10T06:11:19;45.13;;;14.73;;
71965;SDS011;59836;52.132;5.442;2022-12-10T06:13:45;41.08;;;14.13;;
71965;SDS011;59836;52.132;5.442;2022-12-10T06:16:19;40.73;;;13.40;;
71965;SDS011;59836;52.132;5.442;2022-12-10T06:18:46;36.22;;;12.45;;
71965;SDS011;59836;52.132;5.442;2022-12-10T06:21:13;38.90;;;14.18;;
71965;SDS011;59836;52.132;5.442;2022-12-10T06:23:41;36.42;;;12.93;;
71965;SDS011;59836;52.132;5.442;2022-12-10T06:26:16;35.72;;;13.52;;
71965;SDS011;59836;52.132;5.442;2022-12-10T06:28:45;35.87;;;12.43;;
71965;SDS011;59836;52.132;5.442;2022-12-10T06:31:12;36.97;;;12.35;;
71965;SDS011;59836;52.132;5.442;2022-12-10T06:33:40;34.33;;;13.73;;
71965;SDS011;59836;52.132;5.442;2022-12-10T06:36:07;31.67;;;12.98;;
71965;SDS011;59836;52.132;5.442;2022-12-10T06:38:35;36.17;;;12.63;;
71965;SDS011;59836;52.132;5.442;2022-12-10T06:41:06;35.80;;;11.90;;
71965;SDS011;59836;52.132;5.442;2022-12-10T06:43:34;34.88;;;12.70;;
71965;SDS011;59836;52.132;5.442;2022-12-10T06:46:03;35.50;;;12.63;;
71965;SDS011;59836;52.132;5.442;2022-12-10T06:48:34;28.52;;;12.98;;
71965;SDS011;59836;52.132;5.442;2022-12-10T06:51:02;36.38;;;12.35;;
71965;SDS011;59836;52.132;5.442;2022-12-10T06:53:30;37.97;;;13.57;;
71965;SDS011;59836;52.132;5.442;2022-12-10T06:56:00;35.92;;;13.32;;
71965;SDS011;59836;52.132;5.442;2022-12-10T06:58:28;35.05;;;13.00;;
71965;SDS011;59836;52.132;5.442;2022-12-10T07:01:04;37.90;;;13.57;;
71965;SDS011;59836;52.132;5.442;2022-12-10T07:03:35;37.28;;;13.13;;
71965;SDS011;59836;52.132;5.442;2022-12-10T07:06:03;37.87;;;13.17;;
71965;SDS011;59836;52.132;5.442;2022-12-10T07:08:31;33.20;;;11.60;;
71965;SDS011;59836;52.132;5.442;2022-12-10T07:10:57;37.25;;;13.25;;
71965;SDS011;59836;52.132;5.442;2022-12-10T07:13:24;34.53;;;12.65;;
71965;SDS011;59836;52.132;5.442;2022-12-10T07:15:55;33.08;;;11.73;;
71965;SDS011;59836;52.132;5.442;2022-12-10T07:18:22;28.90;;;10.27;;
71965;SDS011;59836;52.132;5.442;2022-12-10T07:20:49;30.85;;;11.35;;
71965;SDS011;59836;52.132;5.442;2022-12-10T07:23:15;26.60;;;11.57;;
71965;SDS011;59836;52.132;5.442;2022-12-10T07:25:41;38.03;;;11.70;;
71965;SDS011;59836;52.132;5.442;2022-12-10T07:28:08;30.08;;;10.60;;
71965;SDS011;59836;52.132;5.442;2022-12-10T07:30:34;31.47;;;11.30;;
71965;SDS011;59836;52.132;5.442;2022-12-10T07:33:01;34.25;;;11.40;;
71965;SDS011;59836;52.132;5.442;2022-12-10T07:35:27;33.35;;;13.45;;
71965;SDS011;59836;52.132;5.442;2022-12-10T07:37:54;33.10;;;11.95;;
71965;SDS011;59836;52.132;5.442;2022-12-10T07:40:20;53.97;;;14.20;;
71965;SDS011;59836;52.132;5.442;2022-12-10T07:42:47;33.93;;;11.20;;
71965;SDS011;59836;52.132;5.442;2022-12-10T07:45:13;36.30;;;13.32;;
71965;SDS011;59836;52.132;5.442;2022-12-10T07:47:39;31.85;;;13.10;;
71965;SDS011;59836;52.132;5.442;2022-12-10T07:50:06;31.95;;;12.07;;
71965;SDS011;59836;52.132;5.442;2022-12-10T07:52:33;33.65;;;11.38;;
71965;SDS011;59836;52.132;5.442;2022-12-10T07:54:59;32.60;;;11.47;;
71965;SDS011;59836;52.132;5.442;2022-12-10T07:57:27;36.30;;;12.35;;
71965;SDS011;59836;52.132;5.442;2022-12-10T07:59:54;46.35;;;13.52;;
71965;SDS011;59836;52.132;5.442;2022-12-10T08:02:21;31.45;;;11.68;;
71965;SDS011;59836;52.132;5.442;2022-12-10T08:04:47;38.65;;;11.70;;
71965;SDS011;59836;52.132;5.442;2022-12-10T08:07:13;31.87;;;10.83;;
71965;SDS011;59836;52.132;5.442;2022-12-10T08:09:40;34.55;;;12.63;;
71965;SDS011;59836;52.132;5.442;2022-12-10T08:12:06;37.42;;;13.60;;
71965;SDS011;59836;52.132;5.442;2022-12-10T08:14:33;34.58;;;11.95;;
71965;SDS011;59836;52.132;5.442;2022-12-10T08:16:59;33.08;;;12.48;;
71965;SDS011;59836;52.132;5.442;2022-12-10T08:19:25;34.37;;;11.70;;
71965;SDS011;59836;52.132;5.442;2022-12-10T08:21:57;33.78;;;12.85;;
71965;SDS011;59836;52.132;5.442;2022-12-10T08:24:23;40.63;;;12.82;;
71965;SDS011;59836;52.132;5.442;2022-12-10T08:26:50;35.42;;;12.15;;
71965;SDS011;59836;52.132;5.442;2022-12-10T08:29:16;36.20;;;13.38;;
71965;SDS011;59836;52.132;5.442;2022-12-10T08:31:42;33.73;;;11.83;;
71965;SDS011;59836;52.132;5.442;2022-12-10T08:34:11;36.15;;;13.18;;
71965;SDS011;59836;52.132;5.442;2022-12-10T08:36:43;32.55;;;12.20;;
71965;SDS011;59836;52.132;5.442;2022-12-10T08:39:10;30.52;;;12.98;;
71965;SDS011;59836;52.132;5.442;2022-12-10T08:41:41;32.00;;;11.50;;
71965;SDS011;59836;52.132;5.442;2022-12-10T08:44:08;33.30;;;12.63;;
71965;SDS011;59836;52.132;5.442;2022-12-10T08:46:36;38.92;;;13.27;;
71965;SDS011;59836;52.132;5.442;2022-12-10T08:49:02;37.47;;;13.57;;
71965;SDS011;59836;52.132;5.442;2022-12-10T08:51:30;33.03;;;12.13;;
71965;SDS011;59836;52.132;5.442;2022-12-10T08:53:56;34.60;;;13.95;;
71965;SDS011;59836;52.132;5.442;2022-12-10T08:56:22;39.83;;;13.63;;
71965;SDS011;59836;52.132;5.442;2022-12-10T08:58:49;34.08;;;10.88;;
71965;SDS011;59836;52.132;5.442;2022-12-10T09:01:16;34.25;;;11.57;;
71965;SDS011;59836;52.132;5.442;2022-12-10T09:03:44;29.48;;;11.60;;
71965;SDS011;59836;52.132;5.442;2022-12-10T09:06:12;31.33;;;11.75;;
71965;SDS011;59836;52.132;5.442;2022-12-10T09:08:41;26.70;;;9.90;;
71965;SDS011;59836;52.132;5.442;2022-12-10T09:11:09;30.35;;;10.02;;
71965;SDS011;59836;52.132;5.442;2022-12-10T09:13:38;29.35;;;10.55;;
71965;SDS011;59836;52.132;5.442;2022-12-10T09:16:05;33.75;;;9.77;;
71965;SDS011;59836;52.132;5.442;2022-12-10T09:18:32;31.15;;;11.13;;
71965;SDS011;59836;52.132;5.442;2022-12-10T09:20:58;31.07;;;10.70;;
71965;SDS011;59836;52.132;5.442;2022-12-10T09:23:25;35.42;;;10.75;;
71965;SDS011;59836;52.132;5.442;2022-12-10T09:25:51;28.08;;;9.70;;
71965;SDS011;59836;52.132;5.442;2022-12-10T09:28:18;25.98;;;10.23;;
71965;SDS011;59836;52.132;5.442;2022-12-10T09:30:44;29.77;;;10.38;;
71965;SDS011;59836;52.132;5.442;2022-12-10T09:33:11;26.03;;;9.07;;
71965;SDS011;59836;52.132;5.442;2022-12-10T09:35:39;26.55;;;9.80;;
71965;SDS011;59836;52.132;5.442;2022-12-10T09:38:07;28.73;;;9.68;;
71965;SDS011;59836;52.132;5.442;2022-12-10T09:40:38;30.50;;;10.30;;
71965;SDS011;59836;52.132;5.442;2022-12-10T09:45:57;28.60;;;9.73;;
71965;SDS011;59836;52.132;5.442;2022-12-10T09:51:22;34.40;;;11.05;;
71965;SDS011;59836;52.132;5.442;2022-12-10T09:53:51;34.55;;;11.00;;
71965;SDS011;59836;52.132;5.442;2022-12-10T09:56:26;37.08;;;12.35;;
71965;SDS011;59836;52.132;5.442;2022-12-10T09:58:57;35.93;;;10.80;;
71965;SDS011;59836;52.132;5.442;2022-12-10T10:01:27;33.22;;;11.15;;
71965;SDS011;59836;52.132;5.442;2022-12-10T10:03:56;36.53;;;12.00;;
71965;SDS011;59836;52.132;5.442;2022-12-10T10:06:22;39.65;;;11.27;;
71965;SDS011;59836;52.132;5.442;2022-12-10T10:08:54;36.08;;;11.38;;
71965;SDS011;59836;52.132;5.442;2022-12-10T10:11:25;38.83;;;11.10;;
71965;SDS011;59836;52.132;5.442;2022-12-10T10:13:57;41.08;;;12.93;;
71965;SDS011;59836;52.132;5.442;2022-12-10T10:16:37;38.75;;;13.35;;
71965;SDS011;59836;52.132;5.442;2022-12-10T10:19:15;40.72;;;11.73;;
71965;SDS011;59836;52.132;5.442;2022-12-10T10:21:48;30.10;;;11.88;;
71965;SDS011;59836;52.132;5.442;2022-12-10T10:24:17;33.33;;;10.93;;
71965;SDS011;59836;52.132;5.442;2022-12-10T10:26:45;29.17;;;10.40;;
71965;SDS011;59836;52.132;5.442;2022-12-10T10:29:13;30.60;;;10.60;;
71965;SDS011;59836;52.132;5.442;2022-12-10T10:31:42;34.30;;;11.75;;
71965;SDS011;59836;52.132;5.442;2022-12-10T10:34:15;30.88;;;9.48;;
71965;SDS011;59836;52.132;5.442;2022-12-10T10:36:43;32.73;;;10.20;;
71965;SDS011;59836;52.132;5.442;2022-12-10T10:41:45;30.48;;;11.10;;
71965;SDS011;59836;52.132;5.442;2022-12-10T10:44:23;28.80;;;10.23;;
71965;SDS011;59836;52.132;5.442;2022-12-10T10:46:59;31.60;;;10.43;;
71965;SDS011;59836;52.132;5.442;2022-12-10T10:49:28;32.67;;;10.90;;
71965;SDS011;59836;52.132;5.442;2022-12-10T10:51:59;33.13;;;9.32;;
71965;SDS011;59836;52.132;5.442;2022-12-10T10:54:31;31.23;;;10.63;;
71965;SDS011;59836;52.132;5.442;2022-12-10T10:57:03;31.88;;;9.80;;
71965;SDS011;59836;52.132;5.442;2022-12-10T10:59:33;30.63;;;9.77;;
71965;SDS011;59836;52.132;5.442;2022-12-10T11:02:04;33.67;;;10.57;;
71965;SDS011;59836;52.132;5.442;2022-12-10T11:04:47;37.45;;;10.10;;
71965;SDS011;59836;52.132;5.442;2022-12-10T11:07:19;30.13;;;11.02;;
71965;SDS011;59836;52.132;5.442;2022-12-10T11:09:48;28.25;;;10.10;;
71965;SDS011;59836;52.132;5.442;2022-12-10T11:12:29;32.15;;;11.57;;
71965;SDS011;59836;52.132;5.442;2022-12-10T11:14:58;32.50;;;10.17;;
71965;SDS011;59836;52.132;5.442;2022-12-10T11:17:25;31.08;;;10.23;;
71965;SDS011;59836;52.132;5.442;2022-12-10T11:22:25;36.70;;;10.93;;
71965;SDS011;59836;52.132;5.442;2022-12-10T11:24:56;30.17;;;10.73;;
71965;SDS011;59836;52.132;5.442;2022-12-10T11:30:17;24.98;;;8.48;;
71965;SDS011;59836;52.132;5.442;2022-12-10T11:32:56;27.17;;;8.63;;
71965;SDS011;59836;52.132;5.442;2022-12-10T11:38:35;27.63;;;8.52;;
71965;SDS011;59836;52.132;5.442;2022-12-10T11:43:56;32.08;;;9.60;;
71965;SDS011;59836;52.132;5.442;2022-12-10T11:49:39;32.05;;;9.57;;
71965;SDS011;59836;52.132;5.442;2022-12-10T11:55:01;36.83;;;11.20;;
71965;SDS011;59836;52.132;5.442;2022-12-10T12:09:45;31.33;;;9.97;;
71965;SDS011;59836;52.132;5.442;2022-12-10T12:12:35;28.30;;;9.88;;
71965;SDS011;59836;52.132;5.442;2022-12-10T12:15:16;29.52;;;8.65;;
71965;SDS011;59836;52.132;5.442;2022-12-10T12:17:49;29.98;;;9.98;;
71965;SDS011;59836;52.132;5.442;2022-12-10T12:20:30;27.17;;;8.70;;
71965;SDS011;59836;52.132;5.442;2022-12-10T12:23:03;30.60;;;10.67;;
71965;SDS011;59836;52.132;5.442;2022-12-10T12:25:37;36.60;;;9.23;;
71965;SDS011;59836;52.132;5.442;2022-12-10T12:28:27;32.03;;;11.07;;
71965;SDS011;59836;52.132;5.442;2022-12-10T12:31:09;34.78;;;10.50;;
71965;SDS011;59836;52.132;5.442;2022-12-10T12:33:46;27.75;;;9.68;;
71965;SDS011;59836;52.132;5.442;2022-12-10T12:36:17;30.37;;;9.63;;
71965;SDS011;59836;52.132;5.442;2022-12-10T12:39:06;30.85;;;9.32;;
71965;SDS011;59836;52.132;5.442;2022-12-10T12:41:46;30.30;;;10.60;;
71965;SDS011;59836;52.132;5.442;2022-12-10T12:44:26;38.17;;;10.73;;
71965;SDS011;59836;52.132;5.442;2022-12-10T12:46:59;35.80;;;9.52;;
71965;SDS011;59836;52.132;5.442;2022-12-10T12:49:34;29.47;;;10.07;;
71965;SDS011;59836;52.132;5.442;2022-12-10T12:54:56;26.00;;;9.57;;
71965;SDS011;59836;52.132;5.442;2022-12-10T12:57:32;26.05;;;9.70;;
71965;SDS011;59836;52.132;5.442;2022-12-10T13:00:27;29.85;;;9.55;;
71965;SDS011;59836;52.132;5.442;2022-12-10T13:03:19;33.47;;;8.90;;
71965;SDS011;59836;52.132;5.442;2022-12-10T13:05:54;26.02;;;9.55;;
71965;SDS011;59836;52.132;5.442;2022-12-10T13:13:38;28.77;;;11.30;;
71965;SDS011;59836;52.132;5.442;2022-12-10T13:24:22;31.08;;;9.95;;
71965;SDS011;59836;52.132;5.442;2022-12-10T13:34:46;41.25;;;10.43;;
71965;SDS011;59836;52.132;5.442;2022-12-10T13:37:36;30.30;;;10.07;;
71965;SDS011;59836;52.132;5.442;2022-12-10T13:42:58;29.10;;;9.60;;
71965;SDS011;59836;52.132;5.442;2022-12-10T13:46:20;30.27;;;9.23;;
71965;SDS011;59836;52.132;5.442;2022-12-10T13:49:12;25.60;;;9.10;;
71965;SDS011;59836;52.132;5.442;2022-12-10T13:57:16;27.17;;;8.90;;
71965;SDS011;59836;52.132;5.442;2022-12-10T14:00:10;30.15;;;10.80;;
71965;SDS011;59836;52.132;5.442;2022-12-10T14:02:57;28.25;;;10.45;;
71965;SDS011;59836;52.132;5.442;2022-12-10T14:08:27;27.65;;;8.80;;
71965;SDS011;59836;52.132;5.442;2022-12-10T14:10:57;29.67;;;10.53;;
71965;SDS011;59836;52.132;5.442;2022-12-10T14:13:31;28.77;;;10.10;;
71965;SDS011;59836;52.132;5.442;2022-12-10T14:16:02;28.15;;;9.57;;
71965;SDS011;59836;52.132;5.442;2022-12-10T14:18:29;32.47;;;11.38;;
71965;SDS011;59836;52.132;5.442;2022-12-10T14:20:56;28.65;;;8.88;;
71965;SDS011;59836;52.132;5.442;2022-12-10T14:23:25;26.67;;;9.73;;
71965;SDS011;59836;52.132;5.442;2022-12-10T14:26:07;27.05;;;9.70;;
71965;SDS011;59836;52.132;5.442;2022-12-10T14:28:39;28.05;;;9.95;;
71965;SDS011;59836;52.132;5.442;2022-12-10T14:31:18;29.55;;;10.50;;
71965;SDS011;59836;52.132;5.442;2022-12-10T14:33:48;29.90;;;9.88;;
71965;SDS011;59836;52.132;5.442;2022-12-10T14:36:17;32.90;;;10.87;;
71965;SDS011;59836;52.132;5.442;2022-12-10T14:38:50;28.63;;;10.45;;
71965;SDS011;59836;52.132;5.442;2022-12-10T14:41:18;34.97;;;10.70;;
71965;SDS011;59836;52.132;5.442;2022-12-10T14:43:47;27.70;;;10.45;;
71965;SDS011;59836;52.132;5.442;2022-12-10T14:46:17;30.80;;;10.15;;
71965;SDS011;59836;52.132;5.442;2022-12-10T14:48:49;33.13;;;11.40;;
71965;SDS011;59836;52.132;5.442;2022-12-10T14:51:19;27.52;;;9.55;;
71965;SDS011;59836;52.132;5.442;2022-12-10T14:53:48;27.98;;;10.35;;
71965;SDS011;59836;52.132;5.442;2022-12-10T14:56:26;29.98;;;9.45;;
71965;SDS011;59836;52.132;5.442;2022-12-10T15:01:31;32.97;;;10.93;;
71965;SDS011;59836;52.132;5.442;2022-12-10T15:04:01;34.45;;;10.50;;
71965;SDS011;59836;52.132;5.442;2022-12-10T15:06:34;31.00;;;11.05;;
71965;SDS011;59836;52.132;5.442;2022-12-10T15:09:03;34.83;;;11.07;;
71965;SDS011;59836;52.132;5.442;2022-12-10T15:11:31;37.50;;;11.73;;
71965;SDS011;59836;52.132;5.442;2022-12-10T15:13:58;42.93;;;10.77;;
71965;SDS011;59836;52.132;5.442;2022-12-10T15:16:32;38.80;;;10.75;;
71965;SDS011;59836;52.132;5.442;2022-12-10T15:19:17;38.53;;;11.73;;
71965;SDS011;59836;52.132;5.442;2022-12-10T15:21:50;34.80;;;10.23;;
71965;SDS011;59836;52.132;5.442;2022-12-10T15:24:25;34.97;;;10.98;;
71965;SDS011;59836;52.132;5.442;2022-12-10T15:26:52;33.07;;;9.97;;
71965;SDS011;59836;52.132;5.442;2022-12-10T15:31:54;36.63;;;10.00;;
71965;SDS011;59836;52.132;5.442;2022-12-10T15:34:25;32.53;;;10.13;;
71965;SDS011;59836;52.132;5.442;2022-12-10T15:37:00;28.52;;;9.60;;
71965;SDS011;59836;52.132;5.442;2022-12-10T15:41:55;31.70;;;10.88;;
71965;SDS011;59836;52.132;5.442;2022-12-10T15:44:25;44.03;;;12.48;;
71965;SDS011;59836;52.132;5.442;2022-12-10T15:47:15;44.53;;;11.50;;
71965;SDS011;59836;52.132;5.442;2022-12-10T15:49:44;36.40;;;10.43;;
71965;SDS011;59836;52.132;5.442;2022-12-10T15:52:22;34.33;;;10.40;;
71965;SDS011;59836;52.132;5.442;2022-12-10T15:54:52;37.53;;;11.57;;
71965;SDS011;59836;52.132;5.442;2022-12-10T15:57:26;36.83;;;11.88;;
71965;SDS011;59836;52.132;5.442;2022-12-10T15:59:58;37.70;;;12.02;;
71965;SDS011;59836;52.132;5.442;2022-12-10T16:05:21;41.00;;;12.03;;
71965;SDS011;59836;52.132;5.442;2022-12-10T16:07:51;40.10;;;12.07;;
71965;SDS011;59836;52.132;5.442;2022-12-10T16:10:20;39.20;;;11.50;;
71965;SDS011;59836;52.132;5.442;2022-12-10T16:12:49;37.95;;;12.30;;
71965;SDS011;59836;52.132;5.442;2022-12-10T16:15:32;43.95;;;12.90;;
71965;SDS011;59836;52.132;5.442;2022-12-10T16:18:02;40.87;;;11.97;;